Tosquita, Argentina
Current Conditions -  °F | °C
As of 3:00 PM on Monday 20 Oct 2014 (Local Time) from SAOC Reporting Station
Clear Clear  
Wind Chill: 82°   Ceiling: Unl
Heat Index: 82°   Visibility: 6mi
Dew Point: 25°   Wind: 26mph
Humidity: 12%   Direction: 360°N
Pressure: 30"   Gusts: 39mph
Location:  33.83°S, 64.46°W
Report Text: SAOC 201800Z 36023G34KT CAVOK 28/M04 Q1016
Loading
Personal Weather Stations






























Interactive Weather Map
Tropical Storm Tracking
New forecast layout! Learn more

10-Day Weather Forecast

Advertisements
Track Severe Weather on mobile